PWSweather.com
Personal Weather Stations
Station Observations
719732
Ponferrada, PonferradaES 24411

PonferradaPonferradaES 24411

Lat: 42.5728, Lon: -6.6425

Elevation: 1676

Station Type: PCE-FWS 20 con garita Ambient Weather SRS100LX

www.meteo.spyfly.es

High Low Average
Temperature 45.7°F7.6°C 34.0°F1.1°C 39.3°F4.1°C
Dew Point 35.1°F1.7°C 28.1°F-2.2°C 31.3°F-0.4°C
Winds 13.0 mph 20.9 kmh Calm Calm 5.0 mph WSW8.0 kmh WSW
Wind Gusts 23.5 mph37.8 kmh 2.2 mph3.5 kmh 10.0 mph16.1 kmh
Humidity 88% 55% 73%
Pressure 30.16 in1021.3 mb 29.54 in1000.3 mb -
Precipitation 0.60 in15.2 mm - -
Hour Temp Dew Point Humidity Winds Wind Gusts Pressure Precip Precip Rate Daily Precip Total
12:00 AM 38.8°F3.8°C 34.1°F1.2°C 83% 11.4 mph W18.3 kmh W 13.6 mph21.9 kmh 29.55 in1000.7 mb 0.00 in0.0 mm 0.00 in0.0 mm 0.60 in15.2 mm
12:05 AM 39.0°F3.9°C 34.0°F1.1°C 82% 9.2 mph W14.8 kmh W 13.6 mph21.9 kmh 29.54 in1000.3 mb 0.00 in0.0 mm 0.00 in0.0 mm 0.60 in15.2 mm
12:10 AM 39.0°F3.9°C 33.7°F0.9°C 81% 6.0 mph W9.7 kmh W 13.6 mph21.9 kmh 29.55 in1000.7 mb 0.00 in0.0 mm 0.00 in0.0 mm 0.60 in15.2 mm
12:15 AM 39.0°F3.9°C 33.7°F0.9°C 81% 6.9 mph W11.1 kmh W 13.0 mph20.9 kmh 29.55 in1000.7 mb 0.00 in0.0 mm 0.00 in0.0 mm 0.60 in15.2 mm
12:20 AM 38.8°F3.8°C 33.5°F0.8°C 81% 8.3 mph WNW13.4 kmh WNW 13.0 mph20.9 kmh 29.55 in1000.7 mb 0.00 in0.0 mm 0.00 in0.0 mm 0.60 in15.2 mm
12:25 AM 38.7°F3.7°C 33.0°F0.6°C 80% 6.0 mph WSW9.7 kmh WSW 13.0 mph20.9 kmh 29.56 in1001.0 mb 0.00 in0.0 mm 0.00 in0.0 mm 0.60 in15.2 mm
12:30 AM 38.8°F3.8°C 33.2°F0.7°C 80% 12.1 mph WSW19.5 kmh WSW 17.4 mph28.0 kmh 29.56 in1001.0 mb 0.00 in0.0 mm 0.00 in0.0 mm 0.60 in15.2 mm
12:35 AM 39.2°F4.0°C 32.9°F0.5°C 78% 9.2 mph WNW14.8 kmh WNW 17.4 mph28.0 kmh 29.57 in1001.4 mb 0.00 in0.0 mm 0.00 in0.0 mm 0.60 in15.2 mm
12:40 AM 39.6°F4.2°C 32.6°F0.3°C 76% 9.2 mph NW14.8 kmh NW 18.3 mph29.5 kmh 29.57 in1001.4 mb 0.00 in0.0 mm 0.00 in0.0 mm 0.60 in15.2 mm
12:45 AM 39.4°F4.1°C 32.5°F0.3°C 76% 5.4 mph NW8.7 kmh NW 18.3 mph29.5 kmh 29.58 in1001.7 mb 0.00 in0.0 mm 0.00 in0.0 mm 0.60 in15.2 mm
12:50 AM 39.4°F4.1°C 32.5°F0.3°C 76% 5.4 mph NW8.7 kmh NW 14.5 mph23.3 kmh 29.58 in1001.7 mb 0.00 in0.0 mm 0.00 in0.0 mm 0.60 in15.2 mm
12:55 AM 39.4°F4.1°C 32.5°F0.3°C 76% 6.9 mph NW11.1 kmh NW 15.2 mph24.5 kmh 29.58 in1001.7 mb 0.00 in0.0 mm 0.00 in0.0 mm 0.60 in15.2 mm
01:00 AM 39.4°F4.1°C 32.5°F0.3°C 76% 6.0 mph NW9.7 kmh NW 15.2 mph24.5 kmh 29.59 in1002.0 mb 0.00 in0.0 mm 0.00 in0.0 mm 0.00 in0.0 mm
01:05 AM 39.2°F4.0°C 32.6°F0.3°C 77% 3.8 mph NW6.1 kmh NW 10.7 mph17.2 kmh 29.59 in1002.0 mb 0.00 in0.0 mm 0.00 in0.0 mm 0.00 in0.0 mm
01:10 AM 39.2°F4.0°C 32.6°F0.3°C 77% 10.7 mph NW17.2 kmh NW 15.2 mph24.5 kmh 29.59 in1002.0 mb 0.00 in0.0 mm 0.00 in0.0 mm 0.00 in0.0 mm
01:15 AM 38.8°F3.8°C 32.9°F0.5°C 79% 7.6 mph WNW12.2 kmh WNW 19.0 mph30.6 kmh 29.60 in1002.4 mb 0.00 in0.0 mm 0.00 in0.0 mm 0.00 in0.0 mm
01:20 AM 38.8°F3.8°C 32.9°F0.5°C 79% 9.8 mph WNW15.8 kmh WNW 19.0 mph30.6 kmh 29.61 in1002.7 mb 0.00 in0.0 mm 0.00 in0.0 mm 0.00 in0.0 mm
01:25 AM 38.8°F3.8°C 32.9°F0.5°C 79% 9.2 mph WNW14.8 kmh WNW 18.3 mph29.5 kmh 29.61 in1002.7 mb 0.00 in0.0 mm 0.00 in0.0 mm 0.00 in0.0 mm
01:30 AM 38.7°F3.7°C 33.0°F0.6°C 80% 7.6 mph W12.2 kmh W 17.4 mph28.0 kmh 29.61 in1002.7 mb 0.00 in0.0 mm 0.00 in0.0 mm 0.00 in0.0 mm
01:35 AM 38.3°F3.5°C 32.7°F0.4°C 80% 8.3 mph W13.4 kmh W 15.9 mph25.6 kmh 29.61 in1002.7 mb 0.00 in0.0 mm 0.00 in0.0 mm 0.00 in0.0 mm
01:40 AM 37.9°F3.3°C 32.6°F0.3°C 81% 9.2 mph WNW14.8 kmh WNW 15.9 mph25.6 kmh 29.62 in1003.0 mb 0.00 in0.0 mm 0.00 in0.0 mm 0.00 in0.0 mm
01:45 AM 37.8°F3.2°C 32.5°F0.3°C 81% 4.5 mph WNW7.2 kmh WNW 15.9 mph25.6 kmh 29.63 in1003.4 mb 0.00 in0.0 mm 0.00 in0.0 mm 0.00 in0.0 mm
01:50 AM 37.6°F3.1°C 32.3°F0.2°C 81% 6.9 mph WSW11.1 kmh WSW 14.5 mph23.3 kmh 29.62 in1003.0 mb 0.00 in0.0 mm 0.00 in0.0 mm 0.00 in0.0 mm
01:55 AM 37.4°F3.0°C 32.1°F0.1°C 81% 5.4 mph WSW8.7 kmh WSW 13.0 mph20.9 kmh 29.62 in1003.0 mb 0.00 in0.0 mm 0.00 in0.0 mm 0.00 in0.0 mm
02:00 AM 37.4°F3.0°C 32.1°F0.1°C 81% 3.1 mph SW5.0 kmh SW 12.1 mph19.5 kmh 29.63 in1003.4 mb 0.00 in0.0 mm 0.00 in0.0 mm 0.00 in0.0 mm
02:05 AM 37.4°F3.0°C 32.1°F0.1°C 81% 3.1 mph SSW5.0 kmh SSW 10.7 mph17.2 kmh 29.63 in1003.4 mb 0.00 in0.0 mm 0.00 in0.0 mm 0.00 in0.0 mm
02:10 AM 37.6°F3.1°C 32.0°F0.0°C 80% 5.4 mph WSW8.7 kmh WSW 8.3 mph13.4 kmh 29.63 in1003.4 mb 0.00 in0.0 mm 0.00 in0.0 mm 0.00 in0.0 mm
02:15 AM 37.8°F3.2°C 32.2°F0.1°C 80% 2.2 mph WSW3.5 kmh WSW 8.3 mph13.4 kmh 29.64 in1003.7 mb 0.00 in0.0 mm 0.00 in0.0 mm 0.00 in0.0 mm
02:20 AM 37.8°F3.2°C 31.8°F-0.1°C 79% 6.9 mph SW11.1 kmh SW 11.4 mph18.3 kmh 29.64 in1003.7 mb 0.00 in0.0 mm 0.00 in0.0 mm 0.00 in0.0 mm
02:25 AM 37.8°F3.2°C 31.8°F-0.1°C 79% 7.6 mph SW12.2 kmh SW 11.4 mph18.3 kmh 29.64 in1003.7 mb 0.00 in0.0 mm 0.00 in0.0 mm 0.00 in0.0 mm
02:30 AM 37.8°F3.2°C 31.5°F-0.3°C 78% 4.5 mph WSW7.2 kmh WSW 11.4 mph18.3 kmh 29.65 in1004.1 mb 0.00 in0.0 mm 0.00 in0.0 mm 0.00 in0.0 mm
02:35 AM 37.8°F3.2°C 31.5°F-0.3°C 78% 7.6 mph W12.2 kmh W 13.6 mph21.9 kmh 29.66 in1004.4 mb 0.00 in0.0 mm 0.00 in0.0 mm 0.00 in0.0 mm
02:40 AM 37.9°F3.3°C 31.7°F-0.2°C 78% 7.6 mph WSW12.2 kmh WSW 13.6 mph21.9 kmh 29.66 in1004.4 mb 0.00 in0.0 mm 0.00 in0.0 mm 0.00 in0.0 mm
02:45 AM 38.1°F3.4°C 31.9°F-0.1°C 78% 8.3 mph WSW13.4 kmh WSW 13.6 mph21.9 kmh 29.66 in1004.4 mb 0.00 in0.0 mm 0.00 in0.0 mm 0.00 in0.0 mm
02:50 AM 38.1°F3.4°C 31.6°F-0.2°C 77% 6.9 mph WNW11.1 kmh WNW 13.6 mph21.9 kmh 29.66 in1004.4 mb 0.00 in0.0 mm 0.00 in0.0 mm 0.00 in0.0 mm
02:55 AM 37.9°F3.3°C 31.4°F-0.3°C 77% 6.9 mph W11.1 kmh W 13.6 mph21.9 kmh 29.67 in1004.7 mb 0.00 in0.0 mm 0.00 in0.0 mm 0.00 in0.0 mm
03:00 AM 37.8°F3.2°C 31.2°F-0.4°C 77% 5.4 mph WSW8.7 kmh WSW 16.8 mph27.0 kmh 29.67 in1004.7 mb 0.00 in0.0 mm 0.00 in0.0 mm 0.00 in0.0 mm
03:05 AM 37.6°F3.1°C 31.4°F-0.3°C 78% 5.4 mph WSW8.7 kmh WSW 16.8 mph27.0 kmh 29.67 in1004.7 mb 0.00 in0.0 mm 0.00 in0.0 mm 0.00 in0.0 mm
03:10 AM 37.4°F3.0°C 31.2°F-0.4°C 78% 6.0 mph WSW9.7 kmh WSW 12.1 mph19.5 kmh 29.68 in1005.1 mb 0.00 in0.0 mm 0.00 in0.0 mm 0.00 in0.0 mm
03:15 AM 37.4°F3.0°C 31.2°F-0.4°C 78% 3.1 mph SW5.0 kmh SW 12.1 mph19.5 kmh 29.68 in1005.1 mb 0.00 in0.0 mm 0.00 in0.0 mm 0.00 in0.0 mm
03:20 AM 37.4°F3.0°C 31.2°F-0.4°C 78% 6.0 mph S9.7 kmh S 12.1 mph19.5 kmh 29.68 in1005.1 mb 0.00 in0.0 mm 0.00 in0.0 mm 0.00 in0.0 mm
03:25 AM 37.4°F3.0°C 31.2°F-0.4°C 78% 6.9 mph SW11.1 kmh SW 11.4 mph18.3 kmh 29.68 in1005.1 mb 0.00 in0.0 mm 0.00 in0.0 mm 0.00 in0.0 mm
03:30 AM 37.8°F3.2°C 31.2°F-0.4°C 77% 4.5 mph WSW7.2 kmh WSW 13.0 mph20.9 kmh 29.68 in1005.1 mb 0.00 in0.0 mm 0.00 in0.0 mm 0.00 in0.0 mm
03:35 AM 37.8°F3.2°C 30.9°F-0.6°C 76% 4.5 mph WSW7.2 kmh WSW 13.0 mph20.9 kmh 29.68 in1005.1 mb 0.00 in0.0 mm 0.00 in0.0 mm 0.00 in0.0 mm
03:40 AM 37.9°F3.3°C 30.7°F-0.7°C 75% 6.9 mph WSW11.1 kmh WSW 11.4 mph18.3 kmh 29.69 in1005.4 mb 0.00 in0.0 mm 0.00 in0.0 mm 0.00 in0.0 mm
03:45 AM 38.1°F3.4°C 30.6°F-0.8°C 74% 5.4 mph WSW8.7 kmh WSW 11.4 mph18.3 kmh 29.70 in1005.8 mb 0.00 in0.0 mm 0.00 in0.0 mm 0.00 in0.0 mm
03:50 AM 38.3°F3.5°C 30.4°F-0.9°C 73% 10.7 mph W17.2 kmh W 14.5 mph23.3 kmh 29.70 in1005.8 mb 0.00 in0.0 mm 0.00 in0.0 mm 0.00 in0.0 mm
03:55 AM 38.5°F3.6°C 30.6°F-0.8°C 73% 8.3 mph W13.4 kmh W 14.5 mph23.3 kmh 29.70 in1005.8 mb 0.00 in0.0 mm 0.00 in0.0 mm 0.00 in0.0 mm
04:00 AM 37.9°F3.3°C 30.7°F-0.7°C 75% 11.4 mph W18.3 kmh W 23.5 mph37.8 kmh 29.71 in1006.1 mb 0.00 in0.0 mm 0.00 in0.0 mm 0.00 in0.0 mm
04:05 AM 37.9°F3.3°C 30.7°F-0.7°C 75% 11.4 mph NW18.3 kmh NW 23.5 mph37.8 kmh 29.71 in1006.1 mb 0.00 in0.0 mm 0.00 in0.0 mm 0.00 in0.0 mm
04:10 AM 37.6°F3.1°C 31.4°F-0.3°C 78% 3.8 mph N6.1 kmh N 20.6 mph33.2 kmh 29.71 in1006.1 mb 0.00 in0.0 mm 0.00 in0.0 mm 0.00 in0.0 mm
04:15 AM 37.4°F3.0°C 31.2°F-0.4°C 78% 0.7 mph NW1.1 kmh NW 20.6 mph33.2 kmh 29.70 in1005.8 mb 0.00 in0.0 mm 0.00 in0.0 mm 0.00 in0.0 mm
04:20 AM 37.4°F3.0°C 31.5°F-0.3°C 79% 0.7 mph WSW1.1 kmh WSW 5.4 mph8.7 kmh 29.70 in1005.8 mb 0.00 in0.0 mm 0.00 in0.0 mm 0.00 in0.0 mm
04:25 AM 37.2°F2.9°C 30.0°F-1.1°C 75% 1.6 mph WSW2.6 kmh WSW 3.1 mph5.0 kmh 29.70 in1005.8 mb 0.00 in0.0 mm 0.00 in0.0 mm 0.00 in0.0 mm
04:30 AM 37.0°F2.8°C 29.9°F-1.2°C 75% 4.5 mph WNW7.2 kmh WNW 9.2 mph14.8 kmh 29.70 in1005.8 mb 0.00 in0.0 mm 0.00 in0.0 mm 0.00 in0.0 mm
04:35 AM 37.0°F2.8°C 29.9°F-1.2°C 75% 5.4 mph W8.7 kmh W 9.2 mph14.8 kmh 29.71 in1006.1 mb 0.00 in0.0 mm 0.00 in0.0 mm 0.00 in0.0 mm
04:40 AM 37.2°F2.9°C 30.0°F-1.1°C 75% 6.0 mph WSW9.7 kmh WSW 11.4 mph18.3 kmh 29.71 in1006.1 mb 0.00 in0.0 mm 0.00 in0.0 mm 0.00 in0.0 mm
04:45 AM 37.0°F2.8°C 29.9°F-1.2°C 75% 6.9 mph W11.1 kmh W 12.1 mph19.5 kmh 29.71 in1006.1 mb 0.00 in0.0 mm 0.00 in0.0 mm 0.00 in0.0 mm
04:50 AM 37.0°F2.8°C 29.9°F-1.2°C 75% 7.6 mph W12.2 kmh W 15.2 mph24.5 kmh 29.70 in1005.8 mb 0.00 in0.0 mm 0.00 in0.0 mm 0.00 in0.0 mm
04:55 AM 37.0°F2.8°C 29.9°F-1.2°C 75% 7.6 mph WSW12.2 kmh WSW 15.2 mph24.5 kmh 29.71 in1006.1 mb 0.00 in0.0 mm 0.00 in0.0 mm 0.00 in0.0 mm
05:00 AM 37.2°F2.9°C 29.7°F-1.3°C 74% 6.9 mph W11.1 kmh W 14.5 mph23.3 kmh 29.71 in1006.1 mb 0.00 in0.0 mm 0.00 in0.0 mm 0.00 in0.0 mm
05:05 AM 37.2°F2.9°C 29.7°F-1.3°C 74% 9.2 mph WNW14.8 kmh WNW 14.5 mph23.3 kmh 29.71 in1006.1 mb 0.00 in0.0 mm 0.00 in0.0 mm 0.00 in0.0 mm
05:10 AM 37.2°F2.9°C 29.4°F-1.4°C 73% 6.0 mph W9.7 kmh W 14.5 mph23.3 kmh 29.72 in1006.4 mb 0.00 in0.0 mm 0.00 in0.0 mm 0.00 in0.0 mm
05:15 AM 37.2°F2.9°C 29.4°F-1.4°C 73% 5.4 mph WSW8.7 kmh WSW 14.5 mph23.3 kmh 29.72 in1006.4 mb 0.00 in0.0 mm 0.00 in0.0 mm 0.00 in0.0 mm
05:20 AM 37.2°F2.9°C 29.0°F-1.7°C 72% 9.8 mph WSW15.8 kmh WSW 13.6 mph21.9 kmh 29.72 in1006.4 mb 0.00 in0.0 mm 0.00 in0.0 mm 0.00 in0.0 mm
05:25 AM 36.9°F2.7°C 28.7°F-1.8°C 72% 9.8 mph WNW15.8 kmh WNW 15.2 mph24.5 kmh 29.73 in1006.8 mb 0.00 in0.0 mm 0.00 in0.0 mm 0.00 in0.0 mm
05:30 AM 36.9°F2.7°C 28.7°F-1.8°C 72% 8.3 mph WNW13.4 kmh WNW 15.2 mph24.5 kmh 29.73 in1006.8 mb 0.00 in0.0 mm 0.00 in0.0 mm 0.00 in0.0 mm
05:35 AM 36.7°F2.6°C 28.9°F-1.7°C 73% 5.4 mph W8.7 kmh W 15.2 mph24.5 kmh 29.73 in1006.8 mb 0.00 in0.0 mm 0.00 in0.0 mm 0.00 in0.0 mm
05:40 AM 36.5°F2.5°C 29.0°F-1.7°C 74% 7.6 mph WSW12.2 kmh WSW 14.5 mph23.3 kmh 29.74 in1007.1 mb 0.00 in0.0 mm 0.00 in0.0 mm 0.00 in0.0 mm
05:45 AM 36.5°F2.5°C 29.0°F-1.7°C 74% 6.0 mph WSW9.7 kmh WSW 14.5 mph23.3 kmh 29.74 in1007.1 mb 0.00 in0.0 mm 0.00 in0.0 mm 0.00 in0.0 mm
05:50 AM 36.7°F2.6°C 29.2°F-1.6°C 74% 7.6 mph W12.2 kmh W 14.5 mph23.3 kmh 29.74 in1007.1 mb 0.00 in0.0 mm 0.00 in0.0 mm 0.00 in0.0 mm
05:55 AM 37.0°F2.8°C 29.2°F-1.6°C 73% 6.9 mph W11.1 kmh W 14.5 mph23.3 kmh 29.74 in1007.1 mb 0.00 in0.0 mm 0.00 in0.0 mm 0.00 in0.0 mm
06:00 AM 37.2°F2.9°C 29.4°F-1.4°C 73% 6.0 mph WNW9.7 kmh WNW 12.1 mph19.5 kmh 29.75 in1007.5 mb 0.00 in0.0 mm 0.00 in0.0 mm 0.00 in0.0 mm
06:05 AM 37.2°F2.9°C 29.4°F-1.4°C 73% 6.9 mph NW11.1 kmh NW 11.4 mph18.3 kmh 29.75 in1007.5 mb 0.00 in0.0 mm 0.00 in0.0 mm 0.00 in0.0 mm
06:10 AM 37.2°F2.9°C 29.4°F-1.4°C 73% 4.5 mph WNW7.2 kmh WNW 10.7 mph17.2 kmh 29.75 in1007.5 mb 0.00 in0.0 mm 0.00 in0.0 mm 0.00 in0.0 mm
06:15 AM 37.0°F2.8°C 29.2°F-1.6°C 73% 3.1 mph WNW5.0 kmh WNW 10.7 mph17.2 kmh 29.75 in1007.5 mb 0.00 in0.0 mm 0.00 in0.0 mm 0.00 in0.0 mm
06:20 AM 36.9°F2.7°C 29.0°F-1.7°C 73% 3.1 mph WNW5.0 kmh WNW 10.7 mph17.2 kmh 29.75 in1007.5 mb 0.00 in0.0 mm 0.00 in0.0 mm 0.00 in0.0 mm
06:25 AM 36.7°F2.6°C 29.2°F-1.6°C 74% 3.1 mph WNW5.0 kmh WNW 10.7 mph17.2 kmh 29.75 in1007.5 mb 0.00 in0.0 mm 0.00 in0.0 mm 0.00 in0.0 mm
06:30 AM 36.5°F2.5°C 29.0°F-1.7°C 74% 2.2 mph WSW3.5 kmh WSW 7.6 mph12.2 kmh 29.75 in1007.5 mb 0.00 in0.0 mm 0.00 in0.0 mm 0.00 in0.0 mm
06:40 AM 36.1°F2.3°C 28.7°F-1.8°C 74% 1.6 mph WSW2.6 kmh WSW 6.9 mph11.1 kmh 29.75 in1007.5 mb 0.00 in0.0 mm 0.00 in0.0 mm 0.00 in0.0 mm
06:45 AM 36.1°F2.3°C 28.7°F-1.8°C 74% 5.4 mph WNW8.7 kmh WNW 8.3 mph13.4 kmh 29.75 in1007.5 mb 0.00 in0.0 mm 0.00 in0.0 mm 0.00 in0.0 mm
06:50 AM 36.1°F2.3°C 28.7°F-1.8°C 74% 5.4 mph W8.7 kmh W 11.4 mph18.3 kmh 29.75 in1007.5 mb 0.00 in0.0 mm 0.00 in0.0 mm 0.00 in0.0 mm
06:55 AM 36.1°F2.3°C 28.7°F-1.8°C 74% 3.8 mph WNW6.1 kmh WNW 11.4 mph18.3 kmh 29.76 in1007.8 mb 0.00 in0.0 mm 0.00 in0.0 mm 0.00 in0.0 mm
07:00 AM 36.1°F2.3°C 28.7°F-1.8°C 74% 4.5 mph WSW7.2 kmh WSW 11.4 mph18.3 kmh 29.76 in1007.8 mb 0.00 in0.0 mm 0.00 in0.0 mm 0.00 in0.0 mm
07:05 AM 36.1°F2.3°C 28.7°F-1.8°C 74% 6.9 mph SW11.1 kmh SW 10.7 mph17.2 kmh 29.76 in1007.8 mb 0.00 in0.0 mm 0.00 in0.0 mm 0.00 in0.0 mm
07:10 AM 36.0°F2.2°C 28.5°F-1.9°C 74% 2.2 mph WSW3.5 kmh WSW 9.2 mph14.8 kmh 29.77 in1008.1 mb 0.00 in0.0 mm 0.00 in0.0 mm 0.00 in0.0 mm
07:15 AM 35.8°F2.1°C 28.3°F-2.1°C 74% 3.1 mph W5.0 kmh W 9.2 mph14.8 kmh 29.78 in1008.5 mb 0.00 in0.0 mm 0.00 in0.0 mm 0.00 in0.0 mm
07:20 AM 35.6°F2.0°C 28.1°F-2.2°C 74% 3.1 mph W5.0 kmh W 6.9 mph11.1 kmh 29.78 in1008.5 mb 0.00 in0.0 mm 0.00 in0.0 mm 0.00 in0.0 mm
07:25 AM 35.8°F2.1°C 28.7°F-1.8°C 75% 4.5 mph WSW7.2 kmh WSW 7.6 mph12.2 kmh 29.79 in1008.8 mb 0.00 in0.0 mm 0.00 in0.0 mm 0.00 in0.0 mm
07:30 AM 35.8°F2.1°C 28.7°F-1.8°C 75% 2.2 mph WSW3.5 kmh WSW 7.6 mph12.2 kmh 29.79 in1008.8 mb 0.00 in0.0 mm 0.00 in0.0 mm 0.00 in0.0 mm
07:35 AM 35.8°F2.1°C 28.7°F-1.8°C 75% Calm Calm 6.0 mph9.7 kmh 29.80 in1009.1 mb 0.00 in0.0 mm 0.00 in0.0 mm 0.00 in0.0 mm
07:40 AM 35.6°F2.0°C 28.5°F-1.9°C 75% 1.6 mph NW2.6 kmh NW 3.8 mph6.1 kmh 29.80 in1009.1 mb 0.00 in0.0 mm 0.00 in0.0 mm 0.00 in0.0 mm
07:45 AM 35.6°F2.0°C 28.5°F-1.9°C 75% 1.6 mph S2.6 kmh S 5.4 mph8.7 kmh 29.80 in1009.1 mb 0.00 in0.0 mm 0.00 in0.0 mm 0.00 in0.0 mm
07:50 AM 35.6°F2.0°C 28.5°F-1.9°C 75% Calm Calm 5.4 mph8.7 kmh 29.80 in1009.1 mb 0.00 in0.0 mm 0.00 in0.0 mm 0.00 in0.0 mm
07:55 AM 35.8°F2.1°C 28.7°F-1.8°C 75% 0.7 mph SSW1.1 kmh SSW 4.5 mph7.2 kmh 29.80 in1009.1 mb 0.00 in0.0 mm 0.00 in0.0 mm 0.00 in0.0 mm
08:00 AM 36.0°F2.2°C 29.1°F-1.6°C 76% 1.6 mph SSW2.6 kmh SSW 4.5 mph7.2 kmh 29.81 in1009.5 mb 0.00 in0.0 mm 0.00 in0.0 mm 0.00 in0.0 mm
08:05 AM 36.1°F2.3°C 29.3°F-1.5°C 76% 3.1 mph SW5.0 kmh SW 4.5 mph7.2 kmh 29.81 in1009.5 mb 0.00 in0.0 mm 0.00 in0.0 mm 0.00 in0.0 mm
08:10 AM 36.1°F2.3°C 29.0°F-1.7°C 75% 2.2 mph W3.5 kmh W 6.0 mph9.7 kmh 29.81 in1009.5 mb 0.00 in0.0 mm 0.00 in0.0 mm 0.00 in0.0 mm
08:15 AM 36.1°F2.3°C 29.0°F-1.7°C 75% 2.2 mph WNW3.5 kmh WNW 6.0 mph9.7 kmh 29.82 in1009.8 mb 0.00 in0.0 mm 0.00 in0.0 mm 0.00 in0.0 mm
08:20 AM 36.0°F2.2°C 28.8°F-1.8°C 75% 0.7 mph WNW1.1 kmh WNW 4.5 mph7.2 kmh 29.83 in1010.2 mb 0.00 in0.0 mm 0.00 in0.0 mm 0.00 in0.0 mm
08:25 AM 35.8°F2.1°C 28.7°F-1.8°C 75% 2.2 mph W3.5 kmh W 4.5 mph7.2 kmh 29.83 in1010.2 mb 0.00 in0.0 mm 0.00 in0.0 mm 0.00 in0.0 mm
08:30 AM 35.6°F2.0°C 28.5°F-1.9°C 75% 1.6 mph SW2.6 kmh SW 3.8 mph6.1 kmh 29.83 in1010.2 mb 0.00 in0.0 mm 0.00 in0.0 mm 0.00 in0.0 mm
08:35 AM 35.4°F1.9°C 28.9°F-1.7°C 77% 3.1 mph SW5.0 kmh SW 6.9 mph11.1 kmh 29.84 in1010.5 mb 0.00 in0.0 mm 0.00 in0.0 mm 0.00 in0.0 mm
08:40 AM 35.6°F2.0°C 28.8°F-1.8°C 76% 2.2 mph WSW3.5 kmh WSW 7.6 mph12.2 kmh 29.84 in1010.5 mb 0.00 in0.0 mm 0.00 in0.0 mm 0.00 in0.0 mm
08:45 AM 35.6°F2.0°C 28.8°F-1.8°C 76% 3.8 mph WSW6.1 kmh WSW 7.6 mph12.2 kmh 29.84 in1010.5 mb 0.00 in0.0 mm 0.00 in0.0 mm 0.00 in0.0 mm
08:50 AM 35.8°F2.1°C 29.3°F-1.5°C 77% 2.2 mph WSW3.5 kmh WSW 7.6 mph12.2 kmh 29.85 in1010.8 mb 0.00 in0.0 mm 0.00 in0.0 mm 0.00 in0.0 mm
08:55 AM 35.8°F2.1°C 29.3°F-1.5°C 77% 1.6 mph WNW2.6 kmh WNW 7.6 mph12.2 kmh 29.86 in1011.2 mb 0.00 in0.0 mm 0.00 in0.0 mm 0.00 in0.0 mm
09:00 AM 35.8°F2.1°C 29.3°F-1.5°C 77% 2.2 mph W3.5 kmh W 5.4 mph8.7 kmh 29.86 in1011.2 mb 0.00 in0.0 mm 0.00 in0.0 mm 0.00 in0.0 mm
09:05 AM 35.8°F2.1°C 29.6°F-1.3°C 78% 1.6 mph W2.6 kmh W 6.0 mph9.7 kmh 29.86 in1011.2 mb 0.00 in0.0 mm 0.00 in0.0 mm 0.00 in0.0 mm
09:10 AM 36.0°F2.2°C 29.8°F-1.2°C 78% 2.2 mph WNW3.5 kmh WNW 6.0 mph9.7 kmh 29.87 in1011.5 mb 0.00 in0.0 mm 0.00 in0.0 mm 0.00 in0.0 mm
09:15 AM 36.0°F2.2°C 29.8°F-1.2°C 78% 2.2 mph W3.5 kmh W 5.4 mph8.7 kmh 29.87 in1011.5 mb 0.00 in0.0 mm 0.00 in0.0 mm 0.00 in0.0 mm
09:20 AM 36.1°F2.3°C 30.0°F-1.1°C 78% 3.8 mph W6.1 kmh W 6.0 mph9.7 kmh 29.88 in1011.9 mb 0.00 in0.0 mm 0.00 in0.0 mm 0.00 in0.0 mm
09:25 AM 36.1°F2.3°C 30.3°F-0.9°C 79% 2.2 mph W3.5 kmh W 6.0 mph9.7 kmh 29.88 in1011.9 mb 0.00 in0.0 mm 0.00 in0.0 mm 0.00 in0.0 mm
09:30 AM 36.1°F2.3°C 30.3°F-0.9°C 79% 1.6 mph WNW2.6 kmh WNW 5.4 mph8.7 kmh 29.89 in1012.2 mb 0.00 in0.0 mm 0.00 in0.0 mm 0.00 in0.0 mm
09:35 AM 36.1°F2.3°C 30.3°F-0.9°C 79% 2.2 mph NW3.5 kmh NW 4.5 mph7.2 kmh 29.89 in1012.2 mb 0.00 in0.0 mm 0.00 in0.0 mm 0.00 in0.0 mm
09:40 AM 36.0°F2.2°C 30.1°F-1.1°C 79% 1.6 mph NNW2.6 kmh NNW 3.8 mph6.1 kmh 29.89 in1012.2 mb 0.00 in0.0 mm 0.00 in0.0 mm 0.00 in0.0 mm
09:45 AM 35.8°F2.1°C 30.2°F-1.0°C 80% 3.8 mph NW6.1 kmh NW 6.9 mph11.1 kmh 29.89 in1012.2 mb 0.01 in0.3 mm 0.12 in3.0 mm 0.01 in0.3 mm
09:50 AM 35.6°F2.0°C 30.1°F-1.1°C 80% 5.4 mph W8.7 kmh W 7.6 mph12.2 kmh 29.90 in1012.5 mb 0.01 in0.3 mm 0.00 in0.0 mm 0.01 in0.3 mm
09:55 AM 35.4°F1.9°C 30.5°F-0.8°C 82% 3.8 mph W6.1 kmh W 7.6 mph12.2 kmh 29.90 in1012.5 mb 0.01 in0.3 mm 0.00 in0.0 mm 0.01 in0.3 mm
10:00 AM 35.4°F1.9°C 30.5°F-0.8°C 82% 4.5 mph WSW7.2 kmh WSW 7.6 mph12.2 kmh 29.91 in1012.9 mb 0.01 in0.3 mm 0.00 in0.0 mm 0.01 in0.3 mm
10:05 AM 35.2°F1.8°C 30.6°F-0.8°C 83% 2.2 mph SW3.5 kmh SW 7.6 mph12.2 kmh 29.90 in1012.5 mb 0.01 in0.3 mm 0.00 in0.0 mm 0.01 in0.3 mm
10:10 AM 35.4°F1.9°C 30.8°F-0.7°C 83% 2.2 mph SW3.5 kmh SW 5.4 mph8.7 kmh 29.91 in1012.9 mb 0.01 in0.3 mm 0.00 in0.0 mm 0.01 in0.3 mm
10:15 AM 35.8°F2.1°C 31.1°F-0.5°C 83% 2.2 mph SSW3.5 kmh SSW 6.0 mph9.7 kmh 29.90 in1012.5 mb 0.01 in0.3 mm 0.00 in0.0 mm 0.01 in0.3 mm
10:20 AM 36.3°F2.4°C 31.7°F-0.2°C 83% 1.6 mph SW2.6 kmh SW 6.9 mph11.1 kmh 29.91 in1012.9 mb 0.01 in0.3 mm 0.00 in0.0 mm 0.01 in0.3 mm
10:25 AM 37.0°F2.8°C 32.4°F0.2°C 83% 1.6 mph WSW2.6 kmh WSW 8.3 mph13.4 kmh 29.91 in1012.9 mb 0.01 in0.3 mm 0.00 in0.0 mm 0.01 in0.3 mm
10:30 AM 37.9°F3.3°C 34.7°F1.5°C 88% 3.8 mph SW6.1 kmh SW 9.2 mph14.8 kmh 29.92 in1013.2 mb 0.01 in0.3 mm 0.00 in0.0 mm 0.01 in0.3 mm
10:35 AM 38.7°F3.7°C 35.1°F1.7°C 87% 3.8 mph SW6.1 kmh SW 9.2 mph14.8 kmh 29.92 in1013.2 mb 0.01 in0.3 mm 0.00 in0.0 mm 0.01 in0.3 mm
10:40 AM 38.5°F3.6°C 35.0°F1.7°C 87% 2.2 mph SW3.5 kmh SW 8.3 mph13.4 kmh 29.92 in1013.2 mb 0.01 in0.3 mm 0.00 in0.0 mm 0.01 in0.3 mm
10:45 AM 38.5°F3.6°C 34.7°F1.5°C 86% 3.1 mph SW5.0 kmh SW 8.3 mph13.4 kmh 29.93 in1013.5 mb 0.00 in0.0 mm 0.00 in0.0 mm 0.01 in0.3 mm
10:50 AM 38.5°F3.6°C 34.4°F1.3°C 85% 6.0 mph SW9.7 kmh SW 9.8 mph15.8 kmh 29.93 in1013.5 mb 0.00 in0.0 mm 0.00 in0.0 mm 0.01 in0.3 mm
10:55 AM 38.5°F3.6°C 34.1°F1.2°C 84% 3.8 mph SW6.1 kmh SW 11.4 mph18.3 kmh 29.93 in1013.5 mb 0.00 in0.0 mm 0.00 in0.0 mm 0.01 in0.3 mm
11:00 AM 38.7°F3.7°C 33.3°F0.7°C 81% 2.2 mph SW3.5 kmh SW 11.4 mph18.3 kmh 29.94 in1013.9 mb 0.00 in0.0 mm 0.00 in0.0 mm 0.01 in0.3 mm
11:05 AM 39.2°F4.0°C 33.2°F0.7°C 79% 3.1 mph WSW5.0 kmh WSW 9.8 mph15.8 kmh 29.94 in1013.9 mb 0.00 in0.0 mm 0.00 in0.0 mm 0.01 in0.3 mm
11:10 AM 39.4°F4.1°C 33.1°F0.6°C 78% 3.8 mph SW6.1 kmh SW 7.6 mph12.2 kmh 29.94 in1013.9 mb 0.00 in0.0 mm 0.00 in0.0 mm 0.01 in0.3 mm
11:15 AM 40.1°F4.5°C 33.5°F0.8°C 77% 2.2 mph SW3.5 kmh SW 7.6 mph12.2 kmh 29.95 in1014.2 mb 0.00 in0.0 mm 0.00 in0.0 mm 0.01 in0.3 mm
11:20 AM 41.5°F5.3°C 34.5°F1.4°C 76% 2.2 mph SW3.5 kmh SW 7.6 mph12.2 kmh 29.95 in1014.2 mb 0.00 in0.0 mm 0.00 in0.0 mm 0.01 in0.3 mm
11:25 AM 41.7°F5.4°C 34.1°F1.2°C 74% 2.2 mph SW3.5 kmh SW 6.9 mph11.1 kmh 29.96 in1014.6 mb 0.00 in0.0 mm 0.00 in0.0 mm 0.01 in0.3 mm
11:30 AM 41.5°F5.3°C 33.5°F0.8°C 73% 1.6 mph WSW2.6 kmh WSW 6.9 mph11.1 kmh 29.96 in1014.6 mb 0.00 in0.0 mm 0.00 in0.0 mm 0.01 in0.3 mm
11:35 AM 41.4°F5.2°C 33.0°F0.6°C 72% 0.7 mph W1.1 kmh W 4.5 mph7.2 kmh 29.97 in1014.9 mb 0.00 in0.0 mm 0.00 in0.0 mm 0.01 in0.3 mm
11:40 AM 41.5°F5.3°C 32.9°F0.5°C 71% 0.7 mph WSW1.1 kmh WSW 2.2 mph3.5 kmh 29.97 in1014.9 mb 0.00 in0.0 mm 0.00 in0.0 mm 0.01 in0.3 mm
11:45 AM 41.5°F5.3°C 32.9°F0.5°C 71% 1.6 mph E2.6 kmh E 3.1 mph5.0 kmh 29.97 in1014.9 mb 0.00 in0.0 mm 0.00 in0.0 mm 0.01 in0.3 mm
11:50 AM 41.5°F5.3°C 32.9°F0.5°C 71% 2.2 mph ENE3.5 kmh ENE 3.1 mph5.0 kmh 29.98 in1015.2 mb 0.00 in0.0 mm 0.00 in0.0 mm 0.01 in0.3 mm
11:55 AM 41.5°F5.3°C 32.5°F0.3°C 70% 3.1 mph NE5.0 kmh NE 3.8 mph6.1 kmh 29.98 in1015.2 mb 0.00 in0.0 mm 0.00 in0.0 mm 0.01 in0.3 mm
12:00 PM 41.5°F5.3°C 32.1°F0.1°C 69% 3.1 mph E5.0 kmh E 4.5 mph7.2 kmh 29.98 in1015.2 mb 0.00 in0.0 mm 0.00 in0.0 mm 0.01 in0.3 mm
12:05 PM 41.5°F5.3°C 31.8°F-0.1°C 68% 3.8 mph SE6.1 kmh SE 6.0 mph9.7 kmh 29.98 in1015.2 mb 0.00 in0.0 mm 0.00 in0.0 mm 0.01 in0.3 mm
12:10 PM 42.3°F5.7°C 33.2°F0.7°C 70% 5.4 mph S8.7 kmh S 8.3 mph13.4 kmh 29.98 in1015.2 mb 0.00 in0.0 mm 0.00 in0.0 mm 0.01 in0.3 mm
12:15 PM 42.6°F5.9°C 33.2°F0.7°C 69% 3.8 mph WNW6.1 kmh WNW 8.3 mph13.4 kmh 29.98 in1015.2 mb 0.00 in0.0 mm 0.00 in0.0 mm 0.01 in0.3 mm
12:20 PM 43.2°F6.2°C 33.3°F0.7°C 68% 3.1 mph WNW5.0 kmh WNW 7.6 mph12.2 kmh 29.98 in1015.2 mb 0.00 in0.0 mm 0.00 in0.0 mm 0.01 in0.3 mm
12:25 PM 43.7°F6.5°C 33.1°F0.6°C 66% 1.6 mph W2.6 kmh W 6.9 mph11.1 kmh 29.99 in1015.6 mb 0.00 in0.0 mm 0.00 in0.0 mm 0.01 in0.3 mm
12:30 PM 44.1°F6.7°C 33.1°F0.6°C 65% 3.8 mph WNW6.1 kmh WNW 8.3 mph13.4 kmh 29.98 in1015.2 mb 0.00 in0.0 mm 0.00 in0.0 mm 0.01 in0.3 mm
12:35 PM 44.1°F6.7°C 32.3°F0.2°C 63% 4.5 mph W7.2 kmh W 9.2 mph14.8 kmh 29.98 in1015.2 mb 0.00 in0.0 mm 0.00 in0.0 mm 0.01 in0.3 mm
12:40 PM 44.2°F6.8°C 32.1°F0.1°C 62% 5.4 mph W8.7 kmh W 9.2 mph14.8 kmh 29.99 in1015.6 mb 0.00 in0.0 mm 0.00 in0.0 mm 0.01 in0.3 mm
12:45 PM 43.9°F6.6°C 31.7°F-0.2°C 62% 3.8 mph WNW6.1 kmh WNW 7.6 mph12.2 kmh 29.99 in1015.6 mb 0.00 in0.0 mm 0.00 in0.0 mm 0.01 in0.3 mm
12:50 PM 43.5°F6.4°C 31.4°F-0.3°C 62% 10.7 mph WNW17.2 kmh WNW 14.5 mph23.3 kmh 29.99 in1015.6 mb 0.00 in0.0 mm 0.00 in0.0 mm 0.01 in0.3 mm
12:55 PM 43.3°F6.3°C 31.2°F-0.4°C 62% 6.9 mph WNW11.1 kmh WNW 14.5 mph23.3 kmh 29.99 in1015.6 mb 0.00 in0.0 mm 0.00 in0.0 mm 0.01 in0.3 mm
01:00 PM 43.7°F6.5°C 31.9°F-0.1°C 63% 9.2 mph NW14.8 kmh NW 14.5 mph23.3 kmh 29.99 in1015.6 mb 0.00 in0.0 mm 0.00 in0.0 mm 0.01 in0.3 mm
01:05 PM 43.9°F6.6°C 32.9°F0.5°C 65% 11.4 mph NW18.3 kmh NW 19.7 mph31.7 kmh 29.99 in1015.6 mb 0.00 in0.0 mm 0.00 in0.0 mm 0.01 in0.3 mm
01:10 PM 43.7°F6.5°C 33.1°F0.6°C 66% 9.8 mph NW15.8 kmh NW 19.7 mph31.7 kmh 30.00 in1015.9 mb 0.00 in0.0 mm 0.00 in0.0 mm 0.01 in0.3 mm
01:15 PM 43.5°F6.4°C 32.5°F0.3°C 65% 6.9 mph NW11.1 kmh NW 19.7 mph31.7 kmh 29.99 in1015.6 mb 0.00 in0.0 mm 0.00 in0.0 mm 0.01 in0.3 mm
01:20 PM 43.3°F6.3°C 32.8°F0.4°C 66% 11.4 mph NW18.3 kmh NW 18.3 mph29.5 kmh 29.99 in1015.6 mb 0.00 in0.0 mm 0.00 in0.0 mm 0.01 in0.3 mm
01:25 PM 42.6°F5.9°C 32.8°F0.4°C 68% 8.3 mph NW13.4 kmh NW 19.0 mph30.6 kmh 30.00 in1015.9 mb 0.00 in0.0 mm 0.00 in0.0 mm 0.01 in0.3 mm
01:30 PM 42.8°F6.0°C 33.0°F0.6°C 68% 9.2 mph NW14.8 kmh NW 19.0 mph30.6 kmh 29.99 in1015.6 mb 0.00 in0.0 mm 0.00 in0.0 mm 0.01 in0.3 mm
01:35 PM 43.3°F6.3°C 33.5°F0.8°C 68% 7.6 mph WNW12.2 kmh WNW 15.9 mph25.6 kmh 29.99 in1015.6 mb 0.00 in0.0 mm 0.00 in0.0 mm 0.01 in0.3 mm
01:40 PM 43.7°F6.5°C 33.5°F0.8°C 67% 6.0 mph WNW9.7 kmh WNW 15.9 mph25.6 kmh 30.00 in1015.9 mb 0.00 in0.0 mm 0.00 in0.0 mm 0.01 in0.3 mm
01:45 PM 44.1°F6.7°C 33.1°F0.6°C 65% 5.4 mph WNW8.7 kmh WNW 13.6 mph21.9 kmh 30.00 in1015.9 mb 0.00 in0.0 mm 0.00 in0.0 mm 0.01 in0.3 mm
01:50 PM 44.2°F6.8°C 33.2°F0.7°C 65% 7.6 mph NW12.2 kmh NW 13.6 mph21.9 kmh 30.00 in1015.9 mb 0.00 in0.0 mm 0.00 in0.0 mm 0.01 in0.3 mm
01:55 PM 44.8°F7.1°C 32.6°F0.3°C 62% 7.6 mph WNW12.2 kmh WNW 12.1 mph19.5 kmh 29.99 in1015.6 mb 0.00 in0.0 mm 0.00 in0.0 mm 0.01 in0.3 mm
02:00 PM 45.1°F7.3°C 32.9°F0.5°C 62% 6.9 mph W11.1 kmh W 12.1 mph19.5 kmh 29.99 in1015.6 mb 0.00 in0.0 mm 0.00 in0.0 mm 0.01 in0.3 mm
02:05 PM 45.7°F7.6°C 33.4°F0.8°C 62% 4.5 mph NW7.2 kmh NW 9.8 mph15.8 kmh 30.00 in1015.9 mb 0.00 in0.0 mm 0.00 in0.0 mm 0.01 in0.3 mm
02:10 PM 45.7°F7.6°C 33.0°F0.6°C 61% 12.1 mph NW19.5 kmh NW 15.9 mph25.6 kmh 30.00 in1015.9 mb 0.00 in0.0 mm 0.00 in0.0 mm 0.01 in0.3 mm
02:15 PM 45.7°F7.6°C 32.2°F0.1°C 59% 6.9 mph NW11.1 kmh NW 15.9 mph25.6 kmh 30.00 in1015.9 mb 0.00 in0.0 mm 0.00 in0.0 mm 0.01 in0.3 mm
02:20 PM 45.7°F7.6°C 31.8°F-0.1°C 58% 6.0 mph WNW9.7 kmh WNW 15.2 mph24.5 kmh 30.00 in1015.9 mb 0.00 in0.0 mm 0.00 in0.0 mm 0.01 in0.3 mm
02:25 PM 45.3°F7.4°C 31.0°F-0.6°C 57% 9.2 mph WNW14.8 kmh WNW 15.2 mph24.5 kmh 30.00 in1015.9 mb 0.01 in0.3 mm 0.12 in3.0 mm 0.02 in0.5 mm
02:30 PM 45.0°F7.2°C 31.1°F-0.5°C 58% 5.4 mph NW8.7 kmh NW 15.2 mph24.5 kmh 30.01 in1016.3 mb 0.01 in0.3 mm 0.00 in0.0 mm 0.02 in0.5 mm
02:35 PM 45.1°F7.3°C 29.9°F-1.2°C 55% 7.6 mph NW12.2 kmh NW 13.0 mph20.9 kmh 30.00 in1015.9 mb 0.01 in0.3 mm 0.00 in0.0 mm 0.02 in0.5 mm
02:40 PM 45.0°F7.2°C 30.2°F-1.0°C 56% 9.2 mph WNW14.8 kmh WNW 13.0 mph20.9 kmh 30.01 in1016.3 mb 0.01 in0.3 mm 0.00 in0.0 mm 0.02 in0.5 mm
02:45 PM 44.6°F7.0°C 30.3°F-0.9°C 57% 8.3 mph NW13.4 kmh NW 15.9 mph25.6 kmh 30.01 in1016.3 mb 0.01 in0.3 mm 0.00 in0.0 mm 0.02 in0.5 mm
02:50 PM 44.4°F6.9°C 31.0°F-0.6°C 59% 13.0 mph NW20.9 kmh NW 17.4 mph28.0 kmh 30.01 in1016.3 mb 0.01 in0.3 mm 0.00 in0.0 mm 0.02 in0.5 mm
02:55 PM 43.7°F6.5°C 31.1°F-0.5°C 61% 6.9 mph NW11.1 kmh NW 21.3 mph34.3 kmh 30.02 in1016.6 mb 0.01 in0.3 mm 0.00 in0.0 mm 0.02 in0.5 mm
03:00 PM 43.3°F6.3°C 31.6°F-0.2°C 63% 6.0 mph NW9.7 kmh NW 21.3 mph34.3 kmh 30.02 in1016.6 mb 0.01 in0.3 mm 0.00 in0.0 mm 0.02 in0.5 mm
03:05 PM 42.8°F6.0°C 31.5°F-0.3°C 64% 3.8 mph N6.1 kmh N 13.0 mph20.9 kmh 30.02 in1016.6 mb 0.01 in0.3 mm 0.00 in0.0 mm 0.02 in0.5 mm
03:10 PM 42.3°F5.7°C 32.1°F0.1°C 67% 7.6 mph N12.2 kmh N 11.4 mph18.3 kmh 30.02 in1016.6 mb 0.01 in0.3 mm 0.00 in0.0 mm 0.02 in0.5 mm
03:15 PM 42.1°F5.6°C 32.7°F0.4°C 69% 7.6 mph N12.2 kmh N 10.7 mph17.2 kmh 30.02 in1016.6 mb 0.01 in0.3 mm 0.00 in0.0 mm 0.02 in0.5 mm
03:20 PM 41.9°F5.5°C 32.8°F0.4°C 70% 8.3 mph N13.4 kmh N 11.4 mph18.3 kmh 30.02 in1016.6 mb 0.01 in0.3 mm 0.00 in0.0 mm 0.02 in0.5 mm
03:25 PM 42.1°F5.6°C 33.0°F0.6°C 70% 5.4 mph NNE8.7 kmh NNE 11.4 mph18.3 kmh 30.02 in1016.6 mb 0.00 in0.0 mm 0.00 in0.0 mm 0.02 in0.5 mm
03:30 PM 42.3°F5.7°C 33.2°F0.7°C 70% 1.6 mph NNE2.6 kmh NNE 11.4 mph18.3 kmh 30.02 in1016.6 mb 0.00 in0.0 mm 0.00 in0.0 mm 0.02 in0.5 mm
03:35 PM 43.0°F6.1°C 34.2°F1.2°C 71% 3.1 mph NNW5.0 kmh NNW 8.3 mph13.4 kmh 30.02 in1016.6 mb 0.00 in0.0 mm 0.00 in0.0 mm 0.02 in0.5 mm
03:40 PM 43.2°F6.2°C 33.7°F0.9°C 69% 5.4 mph NW8.7 kmh NW 8.3 mph13.4 kmh 30.03 in1016.9 mb 0.00 in0.0 mm 0.00 in0.0 mm 0.02 in0.5 mm
03:45 PM 43.0°F6.1°C 32.8°F0.4°C 67% 2.2 mph NW3.5 kmh NW 7.6 mph12.2 kmh 30.03 in1016.9 mb 0.00 in0.0 mm 0.00 in0.0 mm 0.02 in0.5 mm
03:50 PM 43.0°F6.1°C 32.8°F0.4°C 67% Calm Calm 7.6 mph12.2 kmh 30.03 in1016.9 mb 0.00 in0.0 mm 0.00 in0.0 mm 0.02 in0.5 mm
03:55 PM 43.0°F6.1°C 33.2°F0.7°C 68% 0.7 mph NNW1.1 kmh NNW 5.4 mph8.7 kmh 30.03 in1016.9 mb 0.00 in0.0 mm 0.00 in0.0 mm 0.02 in0.5 mm
04:00 PM 42.8°F6.0°C 33.3°F0.7°C 69% 2.2 mph N3.5 kmh N 5.4 mph8.7 kmh 30.03 in1016.9 mb 0.00 in0.0 mm 0.00 in0.0 mm 0.02 in0.5 mm
04:05 PM 42.8°F6.0°C 33.0°F0.6°C 68% 1.6 mph NNW2.6 kmh NNW 6.0 mph9.7 kmh 30.03 in1016.9 mb 0.00 in0.0 mm 0.00 in0.0 mm 0.02 in0.5 mm
04:10 PM 42.6°F5.9°C 32.8°F0.4°C 68% 6.0 mph NW9.7 kmh NW 9.2 mph14.8 kmh 30.03 in1016.9 mb 0.00 in0.0 mm 0.00 in0.0 mm 0.02 in0.5 mm
04:15 PM 42.6°F5.9°C 32.8°F0.4°C 68% 9.2 mph NW14.8 kmh NW 12.1 mph19.5 kmh 30.03 in1016.9 mb 0.00 in0.0 mm 0.00 in0.0 mm 0.02 in0.5 mm
04:20 PM 42.8°F6.0°C 33.0°F0.6°C 68% 3.1 mph NW5.0 kmh NW 12.1 mph19.5 kmh 30.03 in1016.9 mb 0.00 in0.0 mm 0.00 in0.0 mm 0.02 in0.5 mm
04:25 PM 43.0°F6.1°C 33.2°F0.7°C 68% 6.0 mph WNW9.7 kmh WNW 12.1 mph19.5 kmh 30.03 in1016.9 mb 0.00 in0.0 mm 0.00 in0.0 mm 0.02 in0.5 mm
04:30 PM 43.0°F6.1°C 33.2°F0.7°C 68% 4.5 mph WNW7.2 kmh WNW 8.3 mph13.4 kmh 30.04 in1017.3 mb 0.00 in0.0 mm 0.00 in0.0 mm 0.02 in0.5 mm
04:35 PM 43.2°F6.2°C 33.3°F0.7°C 68% 6.0 mph WNW9.7 kmh WNW 10.7 mph17.2 kmh 30.03 in1016.9 mb 0.00 in0.0 mm 0.00 in0.0 mm 0.02 in0.5 mm
04:40 PM 43.3°F6.3°C 33.1°F0.6°C 67% 2.2 mph W3.5 kmh W 10.7 mph17.2 kmh 30.04 in1017.3 mb 0.00 in0.0 mm 0.00 in0.0 mm 0.02 in0.5 mm
04:45 PM 43.3°F6.3°C 32.8°F0.4°C 66% 5.4 mph W8.7 kmh W 11.4 mph18.3 kmh 30.04 in1017.3 mb 0.00 in0.0 mm 0.00 in0.0 mm 0.02 in0.5 mm
04:50 PM 43.3°F6.3°C 32.4°F0.2°C 65% 4.5 mph WSW7.2 kmh WSW 11.4 mph18.3 kmh 30.03 in1016.9 mb 0.00 in0.0 mm 0.00 in0.0 mm 0.02 in0.5 mm
04:55 PM 43.5°F6.4°C 32.5°F0.3°C 65% 3.8 mph WSW6.1 kmh WSW 11.4 mph18.3 kmh 30.03 in1016.9 mb 0.00 in0.0 mm 0.00 in0.0 mm 0.02 in0.5 mm
05:00 PM 43.9°F6.6°C 32.1°F0.1°C 63% 5.4 mph W8.7 kmh W 12.1 mph19.5 kmh 30.03 in1016.9 mb 0.00 in0.0 mm 0.00 in0.0 mm 0.02 in0.5 mm
05:05 PM 44.1°F6.7°C 31.9°F-0.1°C 62% 8.3 mph NW13.4 kmh NW 13.0 mph20.9 kmh 30.03 in1016.9 mb 0.00 in0.0 mm 0.00 in0.0 mm 0.02 in0.5 mm
05:10 PM 43.9°F6.6°C 30.9°F-0.6°C 60% 4.5 mph NW7.2 kmh NW 15.2 mph24.5 kmh 30.03 in1016.9 mb 0.00 in0.0 mm 0.00 in0.0 mm 0.02 in0.5 mm
05:15 PM 43.9°F6.6°C 30.5°F-0.8°C 59% 7.6 mph NW12.2 kmh NW 15.2 mph24.5 kmh 30.03 in1016.9 mb 0.00 in0.0 mm 0.00 in0.0 mm 0.02 in0.5 mm
05:20 PM 44.1°F6.7°C 29.8°F-1.2°C 57% 6.9 mph NW11.1 kmh NW 14.5 mph23.3 kmh 30.03 in1016.9 mb 0.00 in0.0 mm 0.00 in0.0 mm 0.02 in0.5 mm
05:25 PM 44.1°F6.7°C 29.4°F-1.4°C 56% 6.9 mph NW11.1 kmh NW 13.6 mph21.9 kmh 30.04 in1017.3 mb 0.00 in0.0 mm 0.00 in0.0 mm 0.02 in0.5 mm
05:30 PM 44.1°F6.7°C 29.4°F-1.4°C 56% 8.3 mph NW13.4 kmh NW 13.6 mph21.9 kmh 30.04 in1017.3 mb 0.00 in0.0 mm 0.00 in0.0 mm 0.02 in0.5 mm
05:35 PM 44.1°F6.7°C 30.2°F-1.0°C 58% 5.4 mph NW8.7 kmh NW 12.1 mph19.5 kmh 30.05 in1017.6 mb 0.00 in0.0 mm 0.00 in0.0 mm 0.02 in0.5 mm
05:40 PM 43.9°F6.6°C 30.5°F-0.8°C 59% 6.0 mph W9.7 kmh W 16.8 mph27.0 kmh 30.05 in1017.6 mb 0.00 in0.0 mm 0.00 in0.0 mm 0.02 in0.5 mm
05:45 PM 43.5°F6.4°C 30.2°F-1.0°C 59% 3.1 mph W5.0 kmh W 16.8 mph27.0 kmh 30.04 in1017.3 mb 0.00 in0.0 mm 0.00 in0.0 mm 0.02 in0.5 mm
05:50 PM 43.2°F6.2°C 30.2°F-1.0°C 60% 4.5 mph WNW7.2 kmh WNW 11.4 mph18.3 kmh 30.05 in1017.6 mb 0.00 in0.0 mm 0.00 in0.0 mm 0.02 in0.5 mm
05:55 PM 43.0°F6.1°C 30.5°F-0.8°C 61% 4.5 mph W7.2 kmh W 10.7 mph17.2 kmh 30.05 in1017.6 mb 0.00 in0.0 mm 0.00 in0.0 mm 0.02 in0.5 mm
06:00 PM 42.6°F5.9°C 30.9°F-0.6°C 63% 6.0 mph W9.7 kmh W 9.2 mph14.8 kmh 30.05 in1017.6 mb 0.00 in0.0 mm 0.00 in0.0 mm 0.02 in0.5 mm
06:05 PM 42.6°F5.9°C 30.9°F-0.6°C 63% 4.5 mph WNW7.2 kmh WNW 9.2 mph14.8 kmh 30.05 in1017.6 mb 0.00 in0.0 mm 0.00 in0.0 mm 0.02 in0.5 mm
06:10 PM 42.3°F5.7°C 31.0°F-0.6°C 64% 4.5 mph WNW7.2 kmh WNW 9.2 mph14.8 kmh 30.05 in1017.6 mb 0.00 in0.0 mm 0.00 in0.0 mm 0.02 in0.5 mm
06:15 PM 42.1°F5.6°C 30.8°F-0.7°C 64% 3.8 mph WSW6.1 kmh WSW 9.2 mph14.8 kmh 30.06 in1017.9 mb 0.00 in0.0 mm 0.00 in0.0 mm 0.02 in0.5 mm
06:20 PM 41.9°F5.5°C 30.6°F-0.8°C 64% 4.5 mph SW7.2 kmh SW 13.0 mph20.9 kmh 30.06 in1017.9 mb 0.00 in0.0 mm 0.00 in0.0 mm 0.02 in0.5 mm
06:25 PM 41.9°F5.5°C 31.0°F-0.6°C 65% 3.8 mph WSW6.1 kmh WSW 13.0 mph20.9 kmh 30.06 in1017.9 mb 0.00 in0.0 mm 0.00 in0.0 mm 0.02 in0.5 mm
06:30 PM 41.7°F5.4°C 30.8°F-0.7°C 65% 7.6 mph WNW12.2 kmh WNW 11.4 mph18.3 kmh 30.06 in1017.9 mb 0.00 in0.0 mm 0.00 in0.0 mm 0.02 in0.5 mm
06:35 PM 41.5°F5.3°C 31.0°F-0.6°C 66% 11.4 mph NW18.3 kmh NW 18.3 mph29.5 kmh 30.07 in1018.3 mb 0.00 in0.0 mm 0.00 in0.0 mm 0.02 in0.5 mm
06:40 PM 41.0°F5.0°C 31.3°F-0.4°C 68% 8.3 mph NW13.4 kmh NW 18.3 mph29.5 kmh 30.07 in1018.3 mb 0.00 in0.0 mm 0.00 in0.0 mm 0.02 in0.5 mm
06:45 PM 40.5°F4.7°C 32.2°F0.1°C 72% 6.9 mph WNW11.1 kmh WNW 15.9 mph25.6 kmh 30.08 in1018.6 mb 0.00 in0.0 mm 0.00 in0.0 mm 0.02 in0.5 mm
06:50 PM 39.9°F4.4°C 32.3°F0.2°C 74% 5.4 mph NW8.7 kmh NW 12.1 mph19.5 kmh 30.08 in1018.6 mb 0.00 in0.0 mm 0.00 in0.0 mm 0.02 in0.5 mm
06:55 PM 39.4°F4.1°C 32.1°F0.1°C 75% 3.8 mph NW6.1 kmh NW 11.4 mph18.3 kmh 30.08 in1018.6 mb 0.00 in0.0 mm 0.00 in0.0 mm 0.02 in0.5 mm
07:00 PM 38.8°F3.8°C 32.3°F0.2°C 77% 2.2 mph NW3.5 kmh NW 7.6 mph12.2 kmh 30.08 in1018.6 mb 0.00 in0.0 mm 0.00 in0.0 mm 0.02 in0.5 mm
07:05 PM 38.7°F3.7°C 32.4°F0.2°C 78% 1.6 mph WNW2.6 kmh WNW 6.0 mph9.7 kmh 30.08 in1018.6 mb 0.00 in0.0 mm 0.00 in0.0 mm 0.02 in0.5 mm
07:10 PM 38.5°F3.6°C 32.5°F0.3°C 79% 1.6 mph W2.6 kmh W 5.4 mph8.7 kmh 30.08 in1018.6 mb 0.00 in0.0 mm 0.00 in0.0 mm 0.02 in0.5 mm
07:15 PM 38.3°F3.5°C 32.7°F0.4°C 80% Calm Calm 5.4 mph8.7 kmh 30.09 in1019.0 mb 0.00 in0.0 mm 0.00 in0.0 mm 0.02 in0.5 mm
07:20 PM 38.1°F3.4°C 32.5°F0.3°C 80% 0.7 mph SSW1.1 kmh SSW 4.5 mph7.2 kmh 30.09 in1019.0 mb 0.00 in0.0 mm 0.00 in0.0 mm 0.02 in0.5 mm
07:25 PM 38.1°F3.4°C 32.5°F0.3°C 80% 3.1 mph S5.0 kmh S 6.0 mph9.7 kmh 30.09 in1019.0 mb 0.00 in0.0 mm 0.00 in0.0 mm 0.02 in0.5 mm
07:30 PM 38.1°F3.4°C 32.5°F0.3°C 80% 3.1 mph SSW5.0 kmh SSW 7.6 mph12.2 kmh 30.09 in1019.0 mb 0.00 in0.0 mm 0.00 in0.0 mm 0.02 in0.5 mm
07:35 PM 38.1°F3.4°C 32.8°F0.4°C 81% 3.1 mph SW5.0 kmh SW 7.6 mph12.2 kmh 30.09 in1019.0 mb 0.00 in0.0 mm 0.00 in0.0 mm 0.02 in0.5 mm
07:40 PM 38.1°F3.4°C 32.5°F0.3°C 80% 3.8 mph SSW6.1 kmh SSW 7.6 mph12.2 kmh 30.09 in1019.0 mb 0.00 in0.0 mm 0.00 in0.0 mm 0.02 in0.5 mm
07:45 PM 38.3°F3.5°C 32.4°F0.2°C 79% 3.1 mph SW5.0 kmh SW 7.6 mph12.2 kmh 30.09 in1019.0 mb 0.00 in0.0 mm 0.00 in0.0 mm 0.02 in0.5 mm
07:50 PM 38.3°F3.5°C 32.4°F0.2°C 79% 3.8 mph SW6.1 kmh SW 7.6 mph12.2 kmh 30.10 in1019.3 mb 0.00 in0.0 mm 0.00 in0.0 mm 0.02 in0.5 mm
07:55 PM 38.3°F3.5°C 32.1°F0.1°C 78% 2.2 mph SW3.5 kmh SW 7.6 mph12.2 kmh 30.10 in1019.3 mb 0.00 in0.0 mm 0.00 in0.0 mm 0.02 in0.5 mm
08:00 PM 38.5°F3.6°C 31.9°F-0.1°C 77% 3.8 mph SW6.1 kmh SW 7.6 mph12.2 kmh 30.10 in1019.3 mb 0.00 in0.0 mm 0.00 in0.0 mm 0.02 in0.5 mm
08:05 PM 38.5°F3.6°C 31.9°F-0.1°C 77% 6.0 mph WSW9.7 kmh WSW 9.8 mph15.8 kmh 30.10 in1019.3 mb 0.00 in0.0 mm 0.00 in0.0 mm 0.02 in0.5 mm
08:10 PM 38.7°F3.7°C 31.8°F-0.1°C 76% 6.9 mph W11.1 kmh W 11.4 mph18.3 kmh 30.10 in1019.3 mb 0.00 in0.0 mm 0.00 in0.0 mm 0.02 in0.5 mm
08:15 PM 39.0°F3.9°C 32.1°F0.1°C 76% 4.5 mph WNW7.2 kmh WNW 11.4 mph18.3 kmh 30.10 in1019.3 mb 0.00 in0.0 mm 0.00 in0.0 mm 0.02 in0.5 mm
08:20 PM 39.2°F4.0°C 32.0°F0.0°C 75% 6.0 mph NW9.7 kmh NW 9.8 mph15.8 kmh 30.10 in1019.3 mb 0.00 in0.0 mm 0.00 in0.0 mm 0.02 in0.5 mm
08:25 PM 39.4°F4.1°C 32.1°F0.1°C 75% 6.0 mph W9.7 kmh W 10.7 mph17.2 kmh 30.10 in1019.3 mb 0.00 in0.0 mm 0.00 in0.0 mm 0.02 in0.5 mm
08:30 PM 39.6°F4.2°C 32.0°F0.0°C 74% 7.6 mph WSW12.2 kmh WSW 13.6 mph21.9 kmh 30.11 in1019.6 mb 0.00 in0.0 mm 0.00 in0.0 mm 0.02 in0.5 mm
08:35 PM 39.9°F4.4°C 32.3°F0.2°C 74% 4.5 mph W7.2 kmh W 13.6 mph21.9 kmh 30.11 in1019.6 mb 0.00 in0.0 mm 0.00 in0.0 mm 0.02 in0.5 mm
08:40 PM 39.9°F4.4°C 32.3°F0.2°C 74% 3.8 mph WNW6.1 kmh WNW 9.8 mph15.8 kmh 30.11 in1019.6 mb 0.00 in0.0 mm 0.00 in0.0 mm 0.02 in0.5 mm
08:45 PM 39.9°F4.4°C 32.3°F0.2°C 74% 2.2 mph W3.5 kmh W 6.9 mph11.1 kmh 30.11 in1019.6 mb 0.00 in0.0 mm 0.00 in0.0 mm 0.02 in0.5 mm
08:50 PM 39.9°F4.4°C 32.3°F0.2°C 74% 2.2 mph W3.5 kmh W 6.9 mph11.1 kmh 30.11 in1019.6 mb 0.00 in0.0 mm 0.00 in0.0 mm 0.02 in0.5 mm
08:55 PM 39.7°F4.3°C 32.1°F0.1°C 74% 3.1 mph W5.0 kmh W 5.4 mph8.7 kmh 30.11 in1019.6 mb 0.00 in0.0 mm 0.00 in0.0 mm 0.02 in0.5 mm
09:00 PM 39.7°F4.3°C 32.1°F0.1°C 74% 4.5 mph WNW7.2 kmh WNW 6.9 mph11.1 kmh 30.11 in1019.6 mb 0.00 in0.0 mm 0.00 in0.0 mm 0.02 in0.5 mm
09:05 PM 39.7°F4.3°C 32.1°F0.1°C 74% 3.1 mph WNW5.0 kmh WNW 6.9 mph11.1 kmh 30.11 in1019.6 mb 0.00 in0.0 mm 0.00 in0.0 mm 0.02 in0.5 mm
09:10 PM 39.6°F4.2°C 32.0°F0.0°C 74% 2.2 mph W3.5 kmh W 6.0 mph9.7 kmh 30.12 in1020.0 mb 0.00 in0.0 mm 0.00 in0.0 mm 0.02 in0.5 mm
09:15 PM 39.6°F4.2°C 32.0°F0.0°C 74% 3.8 mph W6.1 kmh W 5.4 mph8.7 kmh 30.11 in1019.6 mb 0.00 in0.0 mm 0.00 in0.0 mm 0.02 in0.5 mm
09:20 PM 39.4°F4.1°C 31.8°F-0.1°C 74% 5.4 mph WNW8.7 kmh WNW 9.2 mph14.8 kmh 30.11 in1019.6 mb 0.00 in0.0 mm 0.00 in0.0 mm 0.02 in0.5 mm
09:25 PM 39.4°F4.1°C 31.8°F-0.1°C 74% 4.5 mph WNW7.2 kmh WNW 9.2 mph14.8 kmh 30.11 in1019.6 mb 0.00 in0.0 mm 0.00 in0.0 mm 0.02 in0.5 mm
09:30 PM 39.4°F4.1°C 31.8°F-0.1°C 74% 5.4 mph W8.7 kmh W 8.3 mph13.4 kmh 30.11 in1019.6 mb 0.00 in0.0 mm 0.00 in0.0 mm 0.02 in0.5 mm
09:35 PM 39.2°F4.0°C 31.6°F-0.2°C 74% 3.8 mph WNW6.1 kmh WNW 8.3 mph13.4 kmh 30.11 in1019.6 mb 0.00 in0.0 mm 0.00 in0.0 mm 0.02 in0.5 mm
09:40 PM 39.0°F3.9°C 31.8°F-0.1°C 75% 3.8 mph WNW6.1 kmh WNW 6.9 mph11.1 kmh 30.13 in1020.3 mb 0.00 in0.0 mm 0.00 in0.0 mm 0.02 in0.5 mm
09:45 PM 38.8°F3.8°C 31.9°F-0.1°C 76% 4.5 mph NW7.2 kmh NW 6.9 mph11.1 kmh 30.12 in1020.0 mb 0.00 in0.0 mm 0.00 in0.0 mm 0.02 in0.5 mm
09:50 PM 38.8°F3.8°C 31.9°F-0.1°C 76% 6.0 mph NW9.7 kmh NW 8.3 mph13.4 kmh 30.13 in1020.3 mb 0.00 in0.0 mm 0.00 in0.0 mm 0.02 in0.5 mm
09:55 PM 38.8°F3.8°C 31.9°F-0.1°C 76% 3.8 mph WNW6.1 kmh WNW 8.3 mph13.4 kmh 30.13 in1020.3 mb 0.00 in0.0 mm 0.00 in0.0 mm 0.02 in0.5 mm
10:00 PM 38.7°F3.7°C 31.8°F-0.1°C 76% 6.0 mph W9.7 kmh W 9.2 mph14.8 kmh 30.13 in1020.3 mb 0.00 in0.0 mm 0.00 in0.0 mm 0.02 in0.5 mm
10:05 PM 38.5°F3.6°C 31.9°F-0.1°C 77% 3.1 mph WNW5.0 kmh WNW 9.2 mph14.8 kmh 30.13 in1020.3 mb 0.00 in0.0 mm 0.00 in0.0 mm 0.02 in0.5 mm
10:10 PM 38.3°F3.5°C 31.7°F-0.2°C 77% 2.2 mph WNW3.5 kmh WNW 9.2 mph14.8 kmh 30.14 in1020.7 mb 0.00 in0.0 mm 0.00 in0.0 mm 0.02 in0.5 mm
10:15 PM 37.9°F3.3°C 31.4°F-0.3°C 77% 2.2 mph WNW3.5 kmh WNW 6.9 mph11.1 kmh 30.14 in1020.7 mb 0.00 in0.0 mm 0.00 in0.0 mm 0.02 in0.5 mm
10:20 PM 37.8°F3.2°C 31.5°F-0.3°C 78% 3.1 mph W5.0 kmh W 4.5 mph7.2 kmh 30.14 in1020.7 mb 0.00 in0.0 mm 0.00 in0.0 mm 0.02 in0.5 mm
10:25 PM 37.6°F3.1°C 31.4°F-0.3°C 78% 1.6 mph W2.6 kmh W 5.4 mph8.7 kmh 30.14 in1020.7 mb 0.00 in0.0 mm 0.00 in0.0 mm 0.02 in0.5 mm
10:30 PM 37.2°F2.9°C 29.7°F-1.3°C 74% 3.1 mph W5.0 kmh W 5.4 mph8.7 kmh 30.14 in1020.7 mb 0.00 in0.0 mm 0.00 in0.0 mm 0.02 in0.5 mm
10:35 PM 37.0°F2.8°C 29.5°F-1.4°C 74% 3.1 mph W5.0 kmh W 6.0 mph9.7 kmh 30.14 in1020.7 mb 0.00 in0.0 mm 0.00 in0.0 mm 0.02 in0.5 mm
10:40 PM 37.0°F2.8°C 29.9°F-1.2°C 75% 2.2 mph WNW3.5 kmh WNW 6.0 mph9.7 kmh 30.14 in1020.7 mb 0.00 in0.0 mm 0.00 in0.0 mm 0.02 in0.5 mm
10:45 PM 36.9°F2.7°C 29.7°F-1.3°C 75% 0.7 mph NW1.1 kmh NW 6.0 mph9.7 kmh 30.14 in1020.7 mb 0.00 in0.0 mm 0.00 in0.0 mm 0.02 in0.5 mm
10:50 PM 36.7°F2.6°C 29.5°F-1.4°C 75% Calm Calm 3.8 mph6.1 kmh 30.14 in1020.7 mb 0.00 in0.0 mm 0.00 in0.0 mm 0.02 in0.5 mm
10:55 PM 36.3°F2.4°C 29.2°F-1.6°C 75% 1.6 mph W2.6 kmh W 4.5 mph7.2 kmh 30.14 in1020.7 mb 0.00 in0.0 mm 0.00 in0.0 mm 0.02 in0.5 mm
11:00 PM 36.3°F2.4°C 29.2°F-1.6°C 75% 2.2 mph W3.5 kmh W 4.5 mph7.2 kmh 30.14 in1020.7 mb 0.00 in0.0 mm 0.00 in0.0 mm 0.02 in0.5 mm
11:05 PM 36.3°F2.4°C 29.5°F-1.4°C 76% Calm Calm 3.1 mph5.0 kmh 30.14 in1020.7 mb 0.00 in0.0 mm 0.00 in0.0 mm 0.02 in0.5 mm
11:10 PM 36.1°F2.3°C 29.3°F-1.5°C 76% 0.7 mph W1.1 kmh W 3.1 mph5.0 kmh 30.15 in1021.0 mb 0.00 in0.0 mm 0.00 in0.0 mm 0.02 in0.5 mm
11:15 PM 35.6°F2.0°C 28.5°F-1.9°C 75% Calm Calm 2.2 mph3.5 kmh 30.15 in1021.0 mb 0.00 in0.0 mm 0.00 in0.0 mm 0.02 in0.5 mm
11:20 PM 35.4°F1.9°C 28.9°F-1.7°C 77% 2.2 mph N3.5 kmh N 3.8 mph6.1 kmh 30.16 in1021.3 mb 0.00 in0.0 mm 0.00 in0.0 mm 0.02 in0.5 mm
11:25 PM 35.2°F1.8°C 28.8°F-1.8°C 77% 2.2 mph E3.5 kmh E 3.8 mph6.1 kmh 30.16 in1021.3 mb 0.00 in0.0 mm 0.00 in0.0 mm 0.02 in0.5 mm
11:30 PM 35.1°F1.7°C 28.9°F-1.7°C 78% 1.6 mph SE2.6 kmh SE 3.8 mph6.1 kmh 30.16 in1021.3 mb 0.00 in0.0 mm 0.00 in0.0 mm 0.02 in0.5 mm
11:35 PM 34.9°F1.6°C 29.0°F-1.7°C 79% 3.1 mph SE5.0 kmh SE 4.5 mph7.2 kmh 30.16 in1021.3 mb 0.00 in0.0 mm 0.00 in0.0 mm 0.02 in0.5 mm
11:40 PM 34.9°F1.6°C 29.0°F-1.7°C 79% 1.6 mph SE2.6 kmh SE 4.5 mph7.2 kmh 30.16 in1021.3 mb 0.00 in0.0 mm 0.00 in0.0 mm 0.02 in0.5 mm
11:45 PM 34.5°F1.4°C 28.7°F-1.8°C 79% 2.2 mph ESE3.5 kmh ESE 4.5 mph7.2 kmh 30.16 in1021.3 mb 0.00 in0.0 mm 0.00 in0.0 mm 0.02 in0.5 mm
11:50 PM 34.3°F1.3°C 28.5°F-1.9°C 79% Calm Calm 4.5 mph7.2 kmh 30.16 in1021.3 mb 0.00 in0.0 mm 0.00 in0.0 mm 0.02 in0.5 mm
11:55 PM 34.0°F1.1°C 28.5°F-1.9°C 80% Calm Calm 3.1 mph5.0 kmh 30.16 in1021.3 mb 0.00 in0.0 mm 0.00 in0.0 mm 0.02 in0.5 mm